Ora Direzione Vento Velocita' Vento Media Vento Raffica Max. Temperatura Wind Chill Pioggia Pressione
23:40:39.0111 °(ESE)2.7 Kts3.5 Kts9.1 Kts13.2 °C13.2 °C0.4 mm1023.8 Hpa
23:19:04.0106 °(ESE)3.7 Kts4.9 Kts9.1 Kts13.4 °C13.1 °C0.4 mm1023.8 Hpa
22:58:46.099 °(E)4.7 Kts6.2 Kts9.1 Kts13.8 °C13.5 °C0.4 mm1023.7 Hpa
22:39:32.0113 °(ESE)6.4 Kts7.0 Kts9.1 Kts14.3 °C13.5 °C0.4 mm1023.5 Hpa
22:20:19.0164 °(SSE)0.0 Kts0.6 Kts4.7 Kts13.6 °C13.6 °C0.4 mm1023.6 Hpa
22:00:39.0235 °(SW)1.0 Kts0.6 Kts4.7 Kts13.8 °C13.8 °C0.4 mm1023.6 Hpa
21:39:14.0288 °(WNW)0.0 Kts0.0 Kts4.7 Kts14.2 °C14.2 °C0.4 mm1023.7 Hpa
21:20:00.0254 °(WSW)0.0 Kts0.6 Kts4.7 Kts14.2 °C14.2 °C0.4 mm1023.5 Hpa
20:58:36.0292 °(WNW)1.0 Kts1.0 Kts4.7 Kts13.8 °C13.8 °C0.4 mm1023.4 Hpa
20:39:20.0281 °(W)1.0 Kts0.8 Kts4.7 Kts13.8 °C13.8 °C0.4 mm1023.4 Hpa
20:20:05.0261 °(W)1.8 Kts0.8 Kts4.7 Kts14.1 °C14.1 °C0.4 mm1023.3 Hpa
19:58:29.0276 °(W)1.0 Kts1.8 Kts4.7 Kts14.0 °C14.0 °C0.4 mm1023.3 Hpa
19:39:16.0293 °(WNW)2.7 Kts1.4 Kts4.7 Kts14.3 °C14.3 °C0.4 mm1023.3 Hpa
19:19:52.0286 °(WNW)1.8 Kts1.4 Kts4.7 Kts14.5 °C14.5 °C0.4 mm1023.4 Hpa
18:58:25.0275 °(W)1.0 Kts1.2 Kts4.7 Kts14.7 °C14.7 °C0.4 mm1023.3 Hpa
18:39:24.0296 °(WNW)1.0 Kts1.6 Kts4.7 Kts15.1 °C15.1 °C0.4 mm1023.4 Hpa
18:20:09.0288 °(WNW)0.0 Kts0.0 Kts4.7 Kts15.6 °C15.6 °C0.4 mm1023.4 Hpa
18:00:38.0278 °(W)1.0 Kts1.2 Kts4.7 Kts15.7 °C15.7 °C0.4 mm1023.4 Hpa
17:39:25.0295 °(WNW)1.0 Kts0.8 Kts4.7 Kts16.2 °C16.2 °C0.4 mm1023.2 Hpa
17:20:12.0240 °(WSW)0.0 Kts0.2 Kts4.7 Kts16.5 °C16.5 °C0.4 mm1023.2 Hpa